createdAt,value
2022-11-21T02:17:36.825Z,79.26
2022-11-21T02:37:29.316Z,79.30
2022-11-21T02:47:26.661Z,78.99
2022-11-21T02:57:37.441Z,79.12
2022-11-21T03:33:45.494Z,80.00
2022-11-21T03:37:01.629Z,79.86
2022-11-21T04:07:18.725Z,81.86
2022-11-21T04:10:41.069Z,81.95
2022-11-21T04:52:40.656Z,82.75
2022-11-21T04:56:19.137Z,81.98
2022-11-21T04:59:18.154Z,82.18
2022-11-21T05:05:56.936Z,82.12
2022-11-21T05:19:18.208Z,82.73
2022-11-21T05:35:52.900Z,84.68
2022-11-21T05:45:07.470Z,85.13
2022-11-21T05:54:54.961Z,85.38
2022-11-21T05:57:36.039Z,84.71
2022-11-21T06:10:00.505Z,84.76
2022-11-21T06:12:35.726Z,84.32
2022-11-21T06:15:30.113Z,84.45
2022-11-21T06:20:48.027Z,84.30
2022-11-21T06:32:35.566Z,85.75
2022-11-21T06:35:43.304Z,86.05
2022-11-21T06:41:36.869Z,86.58
2022-11-21T06:47:40.732Z,86.44
2022-11-21T06:50:35.020Z,85.92
2022-11-21T06:53:24.985Z,86.41
2022-11-21T06:59:40.404Z,86.55
2022-11-21T07:08:31.335Z,86.79
2022-11-21T07:11:25.660Z,86.71
2022-11-21T07:14:11.637Z,86.79
2022-11-21T07:16:41.877Z,87.22
2022-11-21T07:19:40.859Z,86.72
2022-11-21T07:22:40.681Z,86.91
2022-11-21T07:28:48.336Z,87.23
2022-11-21T07:31:34.733Z,86.94
2022-11-21T07:37:42.096Z,86.64
2022-11-21T07:40:32.934Z,86.74
2022-11-21T07:43:19.516Z,86.67
2022-11-21T07:46:03.053Z,87.17
2022-11-21T07:48:43.934Z,86.47
2022-11-21T07:51:53.456Z,87.10
2022-11-21T07:57:26.126Z,86.98
2022-11-21T08:00:18.266Z,87.21
2022-11-21T08:03:15.371Z,87.95
2022-11-21T08:05:45.940Z,87.40
2022-11-21T08:08:20.208Z,87.71
2022-11-21T08:10:57.639Z,87.56
2022-11-21T08:13:24.601Z,87.61
2022-11-21T08:19:04.139Z,87.65
2022-11-21T08:21:31.661Z,87.67
2022-11-21T08:24:21.468Z,87.24
2022-11-21T08:27:08.760Z,88.26
2022-11-21T08:30:00.216Z,89.04
2022-11-21T08:33:25.688Z,88.75
2022-11-21T08:35:57.840Z,88.49
2022-11-21T08:39:04.111Z,88.94
2022-11-21T08:45:15.367Z,88.50
2022-11-21T08:51:01.430Z,87.95
2022-11-21T08:53:52.504Z,88.79
2022-11-21T08:59:15.214Z,88.70
2022-11-21T09:02:08.226Z,88.92
2022-11-21T09:04:49.867Z,88.66
2022-11-21T09:07:23.582Z,88.28
2022-11-21T09:09:59.357Z,88.25
2022-11-21T09:12:34.376Z,88.73
2022-11-21T09:15:06.472Z,88.89
2022-11-21T09:17:49.635Z,88.54
2022-11-21T09:23:04.646Z,89.36
2022-11-21T09:25:38.515Z,89.07
2022-11-21T09:28:07.369Z,89.27
2022-11-21T09:30:41.211Z,88.81
2022-11-21T09:36:58.342Z,89.14
2022-11-21T09:39:47.419Z,89.39
2022-11-21T09:42:49.414Z,89.51
2022-11-21T09:45:50.568Z,89.54
2022-11-21T09:48:30.575Z,89.33
2022-11-21T09:51:03.336Z,90.02
2022-11-21T09:53:33.998Z,89.64
2022-11-21T09:56:06.629Z,90.11
2022-11-21T09:58:39.397Z,90.40
2022-11-21T10:01:06.550Z,90.21
2022-11-21T10:03:42.796Z,90.37
2022-11-21T10:06:17.497Z,90.56
2022-11-21T10:08:54.622Z,89.77
2022-11-21T10:11:31.843Z,90.09
2022-11-21T10:14:24.979Z,89.97
2022-11-21T10:17:09.774Z,90.68
2022-11-21T10:20:20.039Z,90.71
2022-11-21T10:23:12.557Z,91.21
2022-11-21T10:26:09.582Z,90.78
2022-11-21T10:28:52.926Z,91.09
2022-11-21T10:31:38.062Z,90.45
2022-11-21T10:34:12.285Z,90.85
2022-11-21T10:36:41.210Z,90.62
2022-11-21T10:39:15.045Z,90.30
2022-11-21T10:41:50.073Z,91.01
2022-11-21T10:44:25.199Z,90.71
2022-11-21T10:46:57.822Z,90.81
2022-11-21T10:49:29.008Z,90.32
2022-11-21T10:52:05.793Z,90.33
2022-11-21T10:54:32.724Z,90.19
2022-11-21T10:57:05.890Z,90.18
2022-11-21T10:59:33.676Z,90.47
2022-11-21T11:02:03.761Z,90.04
2022-11-21T11:04:41.502Z,89.85
2022-11-21T11:07:24.954Z,89.72
2022-11-21T11:09:51.983Z,89.60
2022-11-21T11:12:37.676Z,89.66
2022-11-21T11:15:08.237Z,90.00
2022-11-21T11:17:36.291Z,89.41
2022-11-21T11:20:05.905Z,89.31
2022-11-21T11:22:32.597Z,89.04
2022-11-21T11:25:00.897Z,89.00
2022-11-21T11:27:29.870Z,89.64
2022-11-21T11:29:56.696Z,88.52
2022-11-21T11:32:23.755Z,88.74
2022-11-21T11:34:58.399Z,88.86
2022-11-21T11:37:40.050Z,89.23
2022-11-21T11:40:18.836Z,89.27
2022-11-21T11:43:06.603Z,89.35
2022-11-21T11:46:11.233Z,88.89
2022-11-21T11:49:03.318Z,89.12
2022-11-21T11:51:33.594Z,88.10
2022-11-21T11:54:06.671Z,88.39
2022-11-21T11:57:08.334Z,87.80
2022-11-21T11:59:47.733Z,87.71
2022-11-21T12:02:34.724Z,87.80
2022-11-21T12:05:15.117Z,87.88
2022-11-21T12:21:30.861Z,87.36
2022-11-21T12:25:21.606Z,87.68
2022-11-21T12:31:27.451Z,86.93
2022-11-21T12:34:44.249Z,86.71
2022-11-21T12:37:40.409Z,87.45
2022-11-21T12:43:57.572Z,86.66
2022-11-21T12:50:29.463Z,86.64
2022-11-21T14:51:45.122Z,93.21
2022-11-21T14:58:07.692Z,94.88
2022-11-21T15:04:57.319Z,95.46
2022-11-21T15:17:35.043Z,95.62
2022-11-21T15:24:11.191Z,95.83
2022-11-21T15:27:27.217Z,97.04
2022-11-21T15:30:42.279Z,96.70
2022-11-21T15:35:01.065Z,96.26
2022-11-21T15:36:29.363Z,95.30
2022-11-21T15:39:22.320Z,97.01
2022-11-21T15:45:35.984Z,97.89
2022-11-21T15:48:22.813Z,97.30
2022-11-21T15:51:06.169Z,96.73
2022-11-21T15:53:50.542Z,98.25
2022-11-21T15:56:37.544Z,98.14
2022-11-21T16:02:51.084Z,98.88
2022-11-21T16:05:39.927Z,98.79
2022-11-21T16:08:29.002Z,99.36
2022-11-21T16:11:08.752Z,99.12
2022-11-21T16:13:51.514Z,99.10
2022-11-21T16:16:43.489Z,99.03
2022-11-21T16:19:41.743Z,98.78
2022-11-21T16:25:21.452Z,99.21
2022-11-21T17:24:57.483Z,100.00
2022-11-21T17:48:54.842Z,100.00
2022-11-21T17:58:55.423Z,100.00
2022-11-21T18:02:59.401Z,100.00
2022-11-21T18:12:28.121Z,100.00
2022-11-21T18:14:57.945Z,100.00
2022-11-21T18:17:54.567Z,100.00
2022-11-21T18:24:30.499Z,100.00
2022-11-21T18:33:34.159Z,100.00
2022-11-21T18:56:55.881Z,100.00
2022-11-21T19:33:10.449Z,100.00
2022-11-21T21:17:17.202Z,100.00
2022-11-21T21:31:04.119Z,100.00
2022-11-21T21:37:29.191Z,100.00
2022-11-21T23:29:50.446Z,100.00
